createdAt,value
2023-01-29T00:00:09.205Z,17.84
2023-01-29T00:02:38.965Z,17.67
2023-01-29T00:05:25.476Z,17.29
2023-01-29T00:07:52.954Z,18.04
2023-01-29T00:10:19.589Z,17.61
2023-01-29T00:12:46.230Z,17.87
2023-01-29T00:15:12.892Z,18.28
2023-01-29T00:17:39.548Z,18.60
2023-01-29T00:20:06.599Z,17.93
2023-01-29T00:22:33.281Z,18.40
2023-01-29T00:24:59.946Z,18.01
2023-01-29T00:27:26.596Z,18.30
2023-01-29T00:29:53.236Z,18.52
2023-01-29T00:32:20.094Z,18.37
2023-01-29T00:34:46.815Z,18.44
2023-01-29T00:37:13.473Z,18.33
2023-01-29T00:39:47.960Z,17.76
2023-01-29T00:42:14.925Z,18.06
2023-01-29T00:44:41.602Z,18.30
2023-01-29T00:47:08.259Z,18.56
2023-01-29T00:49:34.918Z,18.49
2023-01-29T00:52:01.569Z,18.68
2023-01-29T00:54:28.194Z,18.02
2023-01-29T00:56:54.819Z,18.53
2023-01-29T00:59:21.454Z,19.02
2023-01-29T01:01:48.176Z,19.06
2023-01-29T01:04:14.882Z,18.52
2023-01-29T01:06:43.021Z,18.79
2023-01-29T01:09:09.917Z,18.16
2023-01-29T01:11:36.583Z,18.32
2023-01-29T01:14:03.228Z,18.87
2023-01-29T01:16:29.900Z,18.45
2023-01-29T01:18:56.665Z,18.01
2023-01-29T01:21:23.297Z,17.95
2023-01-29T01:23:49.937Z,17.89
2023-01-29T01:26:16.635Z,18.06
2023-01-29T01:28:43.270Z,17.76
2023-01-29T01:31:10.871Z,17.86
2023-01-29T01:33:37.610Z,18.00
2023-01-29T01:36:04.605Z,17.87
2023-01-29T01:38:31.264Z,17.63
2023-01-29T01:40:57.909Z,17.94
2023-01-29T01:43:24.590Z,17.62
2023-01-29T01:45:51.262Z,17.02
2023-01-29T01:48:25.027Z,17.42
2023-01-29T01:50:59.519Z,18.10
2023-01-29T01:53:29.123Z,18.25
2023-01-29T01:55:59.624Z,18.14
2023-01-29T01:58:30.941Z,17.93
2023-01-29T02:00:57.683Z,18.31
2023-01-29T02:03:24.471Z,18.00
2023-01-29T02:05:51.125Z,18.36
2023-01-29T02:08:20.488Z,17.96
2023-01-29T02:10:47.516Z,17.71
2023-01-29T02:13:14.536Z,17.76
2023-01-29T02:15:41.167Z,17.67
2023-01-29T02:18:08.297Z,18.02
2023-01-29T02:20:34.940Z,18.44
2023-01-29T02:23:21.121Z,18.30
2023-01-29T02:26:00.093Z,18.38
2023-01-29T02:28:29.665Z,18.61
2023-01-29T02:31:09.964Z,18.88
2023-01-29T02:34:01.626Z,18.34
2023-01-29T02:36:37.069Z,18.67
2023-01-29T02:39:13.249Z,18.37
2023-01-29T02:42:01.063Z,17.71
2023-01-29T02:44:37.211Z,18.03
2023-01-29T02:47:05.839Z,18.20
2023-01-29T02:49:59.885Z,18.31
2023-01-29T02:52:29.644Z,18.72
2023-01-29T02:55:06.811Z,18.25
2023-01-29T02:57:35.936Z,18.49
2023-01-29T03:00:09.938Z,18.69
2023-01-29T03:02:56.843Z,18.94
2023-01-29T03:05:37.064Z,18.55
2023-01-29T03:08:07.181Z,18.97
2023-01-29T03:10:40.421Z,17.86
2023-01-29T03:13:12.265Z,18.14
2023-01-29T03:15:43.418Z,18.32
2023-01-29T03:18:12.458Z,18.02
2023-01-29T03:20:47.857Z,17.55
2023-01-29T03:23:19.753Z,17.76
2023-01-29T03:25:46.418Z,17.57
2023-01-29T03:28:15.178Z,17.50
2023-01-29T03:30:50.014Z,17.10
2023-01-29T03:33:16.667Z,17.28
2023-01-29T03:36:10.664Z,17.49
2023-01-29T03:38:37.317Z,16.97
2023-01-29T03:41:03.878Z,16.91
2023-01-29T03:43:36.339Z,17.31
2023-01-29T03:46:11.678Z,17.75
2023-01-29T03:48:51.587Z,17.38
2023-01-29T03:51:21.131Z,18.07
2023-01-29T03:53:49.131Z,17.96
2023-01-29T03:56:26.421Z,18.30
2023-01-29T03:58:59.159Z,17.85
2023-01-29T04:01:29.188Z,18.78
2023-01-29T04:03:58.897Z,18.96
2023-01-29T04:06:27.411Z,18.92
2023-01-29T04:08:59.265Z,19.51
2023-01-29T04:11:25.913Z,19.32
2023-01-29T04:13:52.560Z,19.05
2023-01-29T04:16:33.401Z,18.84
2023-01-29T04:19:00.139Z,18.99
2023-01-29T04:21:26.971Z,18.65
2023-01-29T04:23:53.666Z,18.16
2023-01-29T04:26:34.916Z,18.98
2023-01-29T04:29:52.534Z,19.29
2023-01-29T04:32:26.121Z,18.55
2023-01-29T04:35:21.704Z,18.30
2023-01-29T04:38:03.334Z,17.64
2023-01-29T04:40:35.427Z,18.07
2023-01-29T04:43:09.706Z,17.56
2023-01-29T04:45:43.001Z,16.89
2023-01-29T04:48:26.257Z,16.97
2023-01-29T04:51:15.709Z,17.25
2023-01-29T04:53:55.815Z,16.93
2023-01-29T04:56:31.395Z,17.01
2023-01-29T04:59:02.211Z,16.54
2023-01-29T05:01:28.899Z,16.92
2023-01-29T05:03:55.569Z,17.08
2023-01-29T05:06:22.213Z,16.97
2023-01-29T05:08:48.847Z,16.47
2023-01-29T05:11:15.621Z,16.33
2023-01-29T05:13:42.259Z,16.79
2023-01-29T05:16:22.395Z,17.12
2023-01-29T05:18:49.073Z,17.60
2023-01-29T05:21:15.743Z,17.79
2023-01-29T05:23:42.379Z,17.59
2023-01-29T05:26:09.035Z,17.50
2023-01-29T05:28:35.740Z,17.68
2023-01-29T05:31:02.452Z,17.60
2023-01-29T05:33:30.186Z,17.58
2023-01-29T05:35:57.221Z,17.72
2023-01-29T05:38:23.870Z,17.66
2023-01-29T05:40:50.557Z,18.04
2023-01-29T05:43:24.363Z,18.07
2023-01-29T05:45:58.278Z,18.01
2023-01-29T05:48:25.474Z,18.22
2023-01-29T05:50:52.154Z,18.26
2023-01-29T05:53:18.821Z,18.47
2023-01-29T05:55:46.082Z,18.70
2023-01-29T05:58:12.812Z,18.41
2023-01-29T06:00:39.477Z,18.36
2023-01-29T06:03:06.223Z,17.65
2023-01-29T06:05:32.897Z,17.23
2023-01-29T06:07:59.559Z,18.49
2023-01-29T06:10:26.217Z,18.89
2023-01-29T06:12:52.916Z,18.06
2023-01-29T06:15:19.553Z,17.99
2023-01-29T06:17:46.196Z,17.15
2023-01-29T06:20:12.870Z,17.58
2023-01-29T06:22:39.542Z,17.89
2023-01-29T06:25:06.849Z,17.26
2023-01-29T06:27:33.510Z,18.09
2023-01-29T06:30:00.177Z,17.77
2023-01-29T06:32:27.601Z,17.46
2023-01-29T06:34:54.321Z,17.70
2023-01-29T06:37:21.267Z,17.62
2023-01-29T06:39:47.898Z,17.80
2023-01-29T06:42:14.528Z,17.81
2023-01-29T06:44:41.189Z,17.56
2023-01-29T06:47:07.818Z,17.25
2023-01-29T06:49:34.458Z,17.35
2023-01-29T06:52:01.233Z,17.34
2023-01-29T06:54:27.867Z,17.73
2023-01-29T06:56:54.549Z,18.49
2023-01-29T06:59:21.282Z,17.90
2023-01-29T07:01:48.068Z,18.44
2023-01-29T07:04:14.771Z,18.21
2023-01-29T07:06:41.569Z,17.95
2023-01-29T07:09:08.231Z,17.77
2023-01-29T07:11:35.077Z,18.42
2023-01-29T07:14:01.770Z,18.51
2023-01-29T07:16:28.474Z,18.56
2023-01-29T07:18:55.332Z,18.30
2023-01-29T07:21:22.004Z,18.44
2023-01-29T07:23:48.686Z,17.99
2023-01-29T07:26:15.356Z,17.36
2023-01-29T07:28:41.981Z,17.24
2023-01-29T07:31:08.661Z,17.40
2023-01-29T07:33:35.366Z,18.09
2023-01-29T07:36:02.020Z,18.03
2023-01-29T07:38:28.691Z,17.86
2023-01-29T07:40:55.362Z,19.54
2023-01-29T07:43:21.989Z,18.87
2023-01-29T07:45:48.656Z,18.68
2023-01-29T07:48:15.371Z,17.90
2023-01-29T07:50:42.077Z,17.84
2023-01-29T07:53:12.425Z,18.11
2023-01-29T07:55:39.081Z,18.04
2023-01-29T07:58:05.772Z,17.24
2023-01-29T08:00:32.515Z,17.60
2023-01-29T08:03:06.403Z,17.41
2023-01-29T08:05:33.119Z,17.11
2023-01-29T08:08:06.551Z,17.59
2023-01-29T08:10:35.200Z,17.04
2023-01-29T08:13:01.917Z,17.40
2023-01-29T08:15:28.646Z,17.63
2023-01-29T08:20:41.950Z,17.05
2023-01-29T08:23:15.015Z,16.98
2023-01-29T08:25:41.729Z,15.89
2023-01-29T08:28:08.374Z,16.07
2023-01-29T08:30:35.236Z,15.63
2023-01-29T08:33:02.848Z,15.44
2023-01-29T08:35:29.507Z,15.19
2023-01-29T08:37:57.189Z,14.73
2023-01-29T08:40:23.832Z,14.53
2023-01-29T08:42:50.455Z,14.77
2023-01-29T08:45:17.112Z,15.07
2023-01-29T08:47:47.788Z,14.25
2023-01-29T08:50:15.674Z,14.71
2023-01-29T08:52:43.477Z,13.87
2023-01-29T08:55:10.366Z,14.52
2023-01-29T08:57:37.929Z,14.31
2023-01-29T09:00:08.375Z,14.02
2023-01-29T09:02:35.095Z,13.55
2023-01-29T09:05:01.905Z,14.12
2023-01-29T09:07:29.213Z,14.36
2023-01-29T09:09:55.914Z,13.86
2023-01-29T09:12:22.586Z,13.43
2023-01-29T09:14:49.276Z,13.83
2023-01-29T09:17:15.953Z,13.65
2023-01-29T09:19:42.831Z,13.36
2023-01-29T09:22:11.750Z,13.40
2023-01-29T09:24:38.625Z,13.69
2023-01-29T09:27:05.312Z,13.55
2023-01-29T09:29:33.539Z,13.71
2023-01-29T09:32:01.435Z,13.48
2023-01-29T09:34:28.071Z,12.82
2023-01-29T09:36:54.717Z,13.05
2023-01-29T09:39:21.386Z,13.70
2023-01-29T09:42:03.726Z,13.69
2023-01-29T09:45:07.509Z,13.49
2023-01-29T09:47:35.382Z,13.20
2023-01-29T09:50:13.520Z,13.27
2023-01-29T09:52:50.734Z,13.83
2023-01-29T09:55:27.128Z,14.07
2023-01-29T09:57:57.656Z,14.45
2023-01-29T10:00:33.022Z,14.73
2023-01-29T10:03:17.713Z,14.59
2023-01-29T10:06:00.146Z,14.51
2023-01-29T10:08:41.365Z,14.47
2023-01-29T10:11:29.714Z,15.07
2023-01-29T10:14:13.946Z,14.86
2023-01-29T10:16:59.071Z,14.92
2023-01-29T10:19:40.890Z,14.37
2023-01-29T10:22:29.299Z,15.17
2023-01-29T10:25:06.560Z,15.82
2023-01-29T10:27:34.608Z,15.77
2023-01-29T10:30:02.663Z,15.83
2023-01-29T10:32:29.387Z,15.64
2023-01-29T10:35:02.588Z,16.23
2023-01-29T10:37:40.449Z,15.96
2023-01-29T10:40:22.981Z,16.12
2023-01-29T10:42:53.140Z,16.09
2023-01-29T10:45:25.657Z,16.43
2023-01-29T10:48:05.215Z,16.74
2023-01-29T10:51:19.345Z,16.53
2023-01-29T10:53:54.408Z,16.08
2023-01-29T10:56:51.639Z,16.53
2023-01-29T10:59:27.098Z,16.68
2023-01-29T11:01:58.397Z,17.44
2023-01-29T11:04:26.637Z,17.85
2023-01-29T11:06:53.382Z,17.66
2023-01-29T11:09:32.861Z,17.33
2023-01-29T11:12:02.020Z,18.16
2023-01-29T11:14:35.170Z,19.06
2023-01-29T11:17:01.880Z,18.38
2023-01-29T11:19:41.953Z,17.89
2023-01-29T11:22:15.921Z,18.59
2023-01-29T11:24:42.936Z,19.26
2023-01-29T11:27:17.033Z,19.10
2023-01-29T11:29:46.941Z,19.66
2023-01-29T11:32:26.564Z,19.80
2023-01-29T11:35:06.389Z,20.52
2023-01-29T11:37:35.241Z,19.21
2023-01-29T11:40:02.011Z,18.75
2023-01-29T11:42:31.037Z,19.29
2023-01-29T11:44:57.730Z,18.62
2023-01-29T11:47:29.006Z,18.96
2023-01-29T11:50:00.418Z,19.30
2023-01-29T11:52:40.686Z,19.64
2023-01-29T11:55:11.895Z,19.23
2023-01-29T11:57:40.753Z,19.67
2023-01-29T12:00:29.967Z,19.44
2023-01-29T12:03:16.246Z,19.52
2023-01-29T12:05:53.548Z,19.66
2023-01-29T12:08:20.207Z,20.02
2023-01-29T12:10:46.867Z,19.66
2023-01-29T12:13:18.721Z,19.76
2023-01-29T12:15:45.534Z,19.32
2023-01-29T12:18:33.108Z,19.73
2023-01-29T12:21:04.163Z,20.12
2023-01-29T12:24:00.568Z,19.74
2023-01-29T12:26:30.043Z,19.95
2023-01-29T12:29:18.544Z,19.64
2023-01-29T12:32:17.524Z,19.67
2023-01-29T12:34:48.513Z,20.22
2023-01-29T12:37:21.970Z,20.64
2023-01-29T12:39:49.257Z,20.30
2023-01-29T12:42:20.692Z,20.41
2023-01-29T12:44:48.364Z,20.10
2023-01-29T12:47:34.164Z,20.72
2023-01-29T12:50:03.320Z,20.38
2023-01-29T12:52:56.432Z,20.47
2023-01-29T12:55:41.893Z,20.12
2023-01-29T12:58:22.376Z,20.40
2023-01-29T13:00:51.046Z,19.86
2023-01-29T13:03:32.653Z,20.40
2023-01-29T13:06:05.715Z,20.57
2023-01-29T13:08:35.864Z,20.76
2023-01-29T13:11:06.580Z,20.17
2023-01-29T13:13:35.663Z,20.29
2023-01-29T13:16:03.894Z,20.59
2023-01-29T13:18:56.169Z,20.50
2023-01-29T13:21:25.228Z,20.33
2023-01-29T13:23:53.649Z,20.39
2023-01-29T13:26:21.079Z,20.46
2023-01-29T13:28:47.799Z,20.08
2023-01-29T13:31:33.627Z,19.70
2023-01-29T13:34:16.369Z,20.47
2023-01-29T13:36:44.275Z,19.51
2023-01-29T13:39:24.369Z,19.62
2023-01-29T13:41:51.197Z,19.51
2023-01-29T13:44:33.644Z,19.66
2023-01-29T13:47:03.654Z,19.87
2023-01-29T13:49:41.024Z,20.41
2023-01-29T13:52:20.277Z,20.37
2023-01-29T13:54:54.042Z,20.04
2023-01-29T13:57:55.949Z,20.37
2023-01-29T14:00:22.633Z,19.91
2023-01-29T14:02:54.901Z,19.15
2023-01-29T14:05:30.687Z,19.69
2023-01-29T14:07:58.379Z,20.47
2023-01-29T14:10:25.721Z,19.93
2023-01-29T14:13:01.360Z,19.57
2023-01-29T14:15:29.368Z,19.42
2023-01-29T14:18:02.166Z,19.75
2023-01-29T14:20:45.696Z,19.58
2023-01-29T14:23:23.189Z,19.48
2023-01-29T14:25:49.863Z,19.60
2023-01-29T14:28:21.256Z,20.22
2023-01-29T14:30:48.423Z,20.02
2023-01-29T14:33:26.826Z,20.06
2023-01-29T14:35:53.529Z,19.95
2023-01-29T14:38:20.175Z,20.34
2023-01-29T14:40:46.863Z,19.96
2023-01-29T14:43:17.313Z,20.20
2023-01-29T14:45:43.936Z,20.47
2023-01-29T14:48:10.497Z,20.27
2023-01-29T14:50:37.027Z,20.79
2023-01-29T14:53:12.902Z,20.58
2023-01-29T14:55:43.763Z,20.50
2023-01-29T14:58:15.132Z,20.42
2023-01-29T15:00:43.707Z,21.24
2023-01-29T15:03:32.494Z,20.93
2023-01-29T15:05:59.176Z,19.92
2023-01-29T15:08:29.815Z,20.95
2023-01-29T15:10:57.688Z,20.84
2023-01-29T15:13:35.959Z,20.59
2023-01-29T15:16:16.351Z,20.85
2023-01-29T15:18:43.124Z,20.01
2023-01-29T15:21:14.246Z,20.61
2023-01-29T15:23:40.979Z,20.45
2023-01-29T15:26:11.857Z,20.36
2023-01-29T15:28:38.780Z,20.46
2023-01-29T15:31:07.477Z,20.35
2023-01-29T15:33:34.605Z,20.18
2023-01-29T15:36:07.301Z,19.79
2023-01-29T15:38:34.533Z,19.59
2023-01-29T15:41:02.616Z,20.06
2023-01-29T15:43:30.792Z,21.29
2023-01-29T15:45:59.448Z,20.80
2023-01-29T15:48:32.809Z,20.80
2023-01-29T15:50:59.782Z,20.33
2023-01-29T15:53:33.732Z,20.56
2023-01-29T15:56:00.381Z,20.23
2023-01-29T15:58:31.189Z,20.68
2023-01-29T16:00:58.059Z,20.76
2023-01-29T16:03:26.170Z,20.80
2023-01-29T16:05:53.320Z,20.53
2023-01-29T16:08:20.970Z,20.15
2023-01-29T16:10:48.145Z,20.20
2023-01-29T16:13:22.270Z,20.89
2023-01-29T16:15:58.603Z,21.15
2023-01-29T16:18:29.726Z,20.32
2023-01-29T16:20:56.502Z,20.48
2023-01-29T16:23:30.549Z,21.90
2023-01-29T16:26:02.003Z,21.32
2023-01-29T16:28:28.733Z,22.04
2023-01-29T16:30:57.186Z,21.31
2023-01-29T16:33:23.882Z,21.31
2023-01-29T16:35:51.382Z,20.60
2023-01-29T16:38:29.079Z,20.62
2023-01-29T16:41:07.420Z,20.98
2023-01-29T16:43:49.337Z,21.17
2023-01-29T16:46:20.436Z,21.87
2023-01-29T16:48:47.190Z,22.19
2023-01-29T16:51:17.651Z,21.96
2023-01-29T16:53:59.487Z,20.97
2023-01-29T16:56:27.739Z,22.23
2023-01-29T16:58:54.432Z,21.23
2023-01-29T17:01:22.716Z,21.52
2023-01-29T17:04:00.659Z,23.85
2023-01-29T17:06:27.499Z,23.12
2023-01-29T17:08:54.981Z,23.06
2023-01-29T17:11:46.241Z,22.84
2023-01-29T17:14:12.876Z,23.26
2023-01-29T17:16:56.458Z,23.83
2023-01-29T17:19:23.139Z,23.87
2023-01-29T17:21:49.807Z,24.26
2023-01-29T17:24:16.490Z,23.74
2023-01-29T17:26:43.228Z,27.23
2023-01-29T17:29:13.490Z,27.82
2023-01-29T17:31:40.250Z,28.46
2023-01-29T17:34:11.043Z,29.42
2023-01-29T17:36:37.710Z,28.94
2023-01-29T17:39:18.495Z,27.67
2023-01-29T17:41:47.631Z,28.76
2023-01-29T17:44:14.288Z,31.30
2023-01-29T17:46:40.924Z,30.44
2023-01-29T17:49:27.289Z,29.57
2023-01-29T17:51:54.403Z,27.71
2023-01-29T17:54:21.079Z,25.51
2023-01-29T17:56:47.934Z,24.13
2023-01-29T17:59:19.073Z,24.95
2023-01-29T18:01:46.420Z,28.29
2023-01-29T18:04:13.106Z,27.91
2023-01-29T18:06:40.227Z,25.52
2023-01-29T18:09:07.005Z,24.23
2023-01-29T18:11:33.657Z,24.16
2023-01-29T18:14:01.295Z,24.27
2023-01-29T18:16:40.959Z,24.75
2023-01-29T18:19:16.716Z,25.24
2023-01-29T18:21:43.379Z,25.25
2023-01-29T18:24:10.059Z,25.76
2023-01-29T18:26:36.728Z,25.08
2023-01-29T18:29:04.161Z,26.00
2023-01-29T18:31:31.036Z,27.71
2023-01-29T18:33:57.804Z,29.14
2023-01-29T18:36:24.444Z,30.23
2023-01-29T18:38:51.071Z,32.84
2023-01-29T18:41:17.715Z,33.93
2023-01-29T18:43:44.410Z,37.76
2023-01-29T18:46:11.137Z,39.77
2023-01-29T18:48:37.826Z,40.34
2023-01-29T18:51:04.630Z,31.21
2023-01-29T18:53:31.287Z,30.44
2023-01-29T18:55:58.718Z,29.74
2023-01-29T18:58:33.587Z,28.94
2023-01-29T19:01:03.661Z,28.28
2023-01-29T19:03:30.328Z,27.80
2023-01-29T19:06:01.039Z,26.96
2023-01-29T19:08:27.898Z,26.14
2023-01-29T19:10:54.536Z,26.44
2023-01-29T19:13:21.203Z,27.16
2023-01-29T19:15:49.284Z,26.60
2023-01-29T19:18:15.930Z,26.54
2023-01-29T19:20:42.579Z,25.64
2023-01-29T19:23:09.319Z,26.40
2023-01-29T19:25:39.414Z,26.04
2023-01-29T19:28:06.254Z,25.78
2023-01-29T19:30:32.984Z,26.94
2023-01-29T19:32:59.723Z,27.44
2023-01-29T19:35:26.382Z,27.64
2023-01-29T19:37:53.049Z,27.46
2023-01-29T19:40:19.859Z,27.33
2023-01-29T19:42:46.889Z,27.84
2023-01-29T19:45:13.719Z,26.81
2023-01-29T19:47:43.377Z,26.57
2023-01-29T19:50:10.742Z,29.09
2023-01-29T19:52:52.803Z,31.96
2023-01-29T19:55:20.299Z,30.89
2023-01-29T19:57:47.172Z,28.86
2023-01-29T20:00:14.317Z,28.16
2023-01-29T20:02:41.338Z,30.35
2023-01-29T20:05:08.150Z,32.02
2023-01-29T20:07:34.840Z,30.97
2023-01-29T20:10:01.495Z,28.87
2023-01-29T20:12:28.259Z,27.20
2023-01-29T20:14:54.962Z,27.32
2023-01-29T20:17:21.591Z,27.89
2023-01-29T20:19:48.246Z,29.79
2023-01-29T20:22:14.887Z,30.82
2023-01-29T20:24:41.603Z,30.61
2023-01-29T20:27:11.078Z,29.57
2023-01-29T20:29:38.348Z,29.33
2023-01-29T20:32:05.759Z,28.58
2023-01-29T20:34:32.438Z,28.56
2023-01-29T20:36:59.118Z,29.61
2023-01-29T20:39:25.839Z,30.34
2023-01-29T20:41:52.481Z,28.87
2023-01-29T20:44:19.145Z,28.77
2023-01-29T20:46:46.206Z,28.37
2023-01-29T20:49:12.848Z,27.42
2023-01-29T20:51:39.566Z,27.73
2023-01-29T20:54:06.292Z,28.36
2023-01-29T20:56:37.601Z,26.91
2023-01-29T20:59:06.632Z,28.03
2023-01-29T21:01:33.369Z,27.60
2023-01-29T21:04:00.053Z,26.81
2023-01-29T21:06:26.687Z,27.20
2023-01-29T21:08:53.313Z,26.52
2023-01-29T21:11:20.000Z,26.14
2023-01-29T21:13:46.661Z,27.34
2023-01-29T21:16:13.387Z,27.80
2023-01-29T21:18:40.087Z,28.66
2023-01-29T21:21:06.728Z,28.21
2023-01-29T21:23:33.375Z,27.75
2023-01-29T21:26:06.397Z,29.11
2023-01-29T21:28:33.091Z,29.53
2023-01-29T21:31:06.917Z,30.07
2023-01-29T21:33:33.555Z,30.31
2023-01-29T21:36:00.556Z,29.12
2023-01-29T21:38:27.352Z,29.75
2023-01-29T21:40:59.065Z,32.92
2023-01-29T21:43:25.697Z,31.53
2023-01-29T21:45:56.511Z,30.69
2023-01-29T21:48:23.202Z,30.23
2023-01-29T21:50:50.066Z,29.76
2023-01-29T21:53:17.043Z,30.67
2023-01-29T21:55:43.858Z,30.99
2023-01-29T21:58:10.993Z,30.85
2023-01-29T22:00:38.520Z,29.52
2023-01-29T22:03:05.277Z,28.46
2023-01-29T22:05:32.245Z,28.40
2023-01-29T22:07:58.998Z,27.83
2023-01-29T22:10:25.701Z,27.42
2023-01-29T22:12:52.486Z,27.81
2023-01-29T22:15:19.127Z,27.23
2023-01-29T22:17:45.816Z,27.56
2023-01-29T22:20:13.119Z,28.53
2023-01-29T22:22:39.785Z,26.95
2023-01-29T22:25:06.609Z,28.11
2023-01-29T22:27:33.387Z,27.38
2023-01-29T22:30:00.027Z,26.61
2023-01-29T22:32:26.718Z,26.90
2023-01-29T22:34:53.392Z,26.35
2023-01-29T22:37:20.200Z,26.20
2023-01-29T22:39:46.965Z,25.97
2023-01-29T22:42:13.622Z,25.69
2023-01-29T22:44:40.602Z,25.72
2023-01-29T22:47:07.258Z,26.03
2023-01-29T22:49:33.912Z,26.11
2023-01-29T22:52:00.546Z,25.89
2023-01-29T22:54:27.231Z,25.24
2023-01-29T22:56:53.877Z,25.02
2023-01-29T22:59:20.520Z,25.26
2023-01-29T23:01:47.215Z,25.69
2023-01-29T23:04:13.875Z,25.62
2023-01-29T23:06:40.538Z,25.93
2023-01-29T23:09:07.309Z,25.24
2023-01-29T23:11:33.940Z,25.24
2023-01-29T23:14:00.611Z,25.07
2023-01-29T23:16:28.180Z,26.39
2023-01-29T23:18:55.096Z,25.92
2023-01-29T23:21:22.398Z,26.23
2023-01-29T23:23:49.199Z,25.35
2023-01-29T23:26:15.885Z,25.66
2023-01-29T23:28:42.913Z,25.66
2023-01-29T23:31:09.615Z,25.17
2023-01-29T23:33:36.304Z,24.60
2023-01-29T23:36:02.950Z,24.96
2023-01-29T23:38:29.577Z,24.62
2023-01-29T23:40:56.227Z,24.22
2023-01-29T23:43:22.873Z,24.42
2023-01-29T23:45:49.509Z,23.37
2023-01-29T23:48:16.151Z,23.08
2023-01-29T23:50:42.817Z,22.95
2023-01-29T23:53:09.455Z,23.05
2023-01-29T23:55:36.386Z,23.75
2023-01-29T23:58:03.328Z,24.47
